sensor_id;sensor_type;location;lat;lon;timestamp;P1;durP1;ratioP1;P2;durP2;ratioP2
23720;SDS011;42950;52.134;5.578;2022-07-30T00:00:03;13.00;;;6.07;;
23720;SDS011;42950;52.134;5.578;2022-07-30T00:02:30;11.65;;;6.80;;
23720;SDS011;42950;52.134;5.578;2022-07-30T00:04:56;10.23;;;5.55;;
23720;SDS011;42950;52.134;5.578;2022-07-30T00:07:23;11.30;;;7.00;;
23720;SDS011;42950;52.134;5.578;2022-07-30T00:09:48;14.98;;;7.05;;
23720;SDS011;42950;52.134;5.578;2022-07-30T00:12:14;14.20;;;7.30;;
23720;SDS011;42950;52.134;5.578;2022-07-30T00:14:40;11.90;;;6.88;;
23720;SDS011;42950;52.134;5.578;2022-07-30T00:17:06;12.00;;;6.22;;
23720;SDS011;42950;52.134;5.578;2022-07-30T00:19:32;13.10;;;7.72;;
23720;SDS011;42950;52.134;5.578;2022-07-30T00:21:58;13.20;;;7.05;;
23720;SDS011;42950;52.134;5.578;2022-07-30T00:24:24;13.90;;;7.28;;
23720;SDS011;42950;52.134;5.578;2022-07-30T00:26:50;11.13;;;6.75;;
23720;SDS011;42950;52.134;5.578;2022-07-30T00:29:15;12.63;;;7.53;;
23720;SDS011;42950;52.134;5.578;2022-07-30T00:31:41;13.52;;;7.47;;
23720;SDS011;42950;52.134;5.578;2022-07-30T00:34:06;14.60;;;8.38;;
23720;SDS011;42950;52.134;5.578;2022-07-30T00:36:33;10.02;;;6.95;;
23720;SDS011;42950;52.134;5.578;2022-07-30T00:38:59;16.15;;;7.75;;
23720;SDS011;42950;52.134;5.578;2022-07-30T00:41:25;14.48;;;7.85;;
23720;SDS011;42950;52.134;5.578;2022-07-30T00:43:52;12.55;;;6.78;;
23720;SDS011;42950;52.134;5.578;2022-07-30T00:46:18;11.48;;;7.70;;
23720;SDS011;42950;52.134;5.578;2022-07-30T00:48:44;11.30;;;6.78;;
23720;SDS011;42950;52.134;5.578;2022-07-30T00:51:10;16.33;;;7.75;;
23720;SDS011;42950;52.134;5.578;2022-07-30T00:53:36;11.02;;;7.28;;
23720;SDS011;42950;52.134;5.578;2022-07-30T00:56:03;11.52;;;7.38;;
23720;SDS011;42950;52.134;5.578;2022-07-30T00:58:29;11.82;;;7.30;;
23720;SDS011;42950;52.134;5.578;2022-07-30T01:00:55;10.32;;;6.60;;
23720;SDS011;42950;52.134;5.578;2022-07-30T01:03:20;15.50;;;7.63;;
23720;SDS011;42950;52.134;5.578;2022-07-30T01:05:47;11.77;;;7.22;;
23720;SDS011;42950;52.134;5.578;2022-07-30T01:08:14;14.43;;;7.47;;
23720;SDS011;42950;52.134;5.578;2022-07-30T01:10:40;13.00;;;7.63;;
23720;SDS011;42950;52.134;5.578;2022-07-30T01:13:05;11.70;;;7.40;;
23720;SDS011;42950;52.134;5.578;2022-07-30T01:15:31;11.90;;;7.00;;
23720;SDS011;42950;52.134;5.578;2022-07-30T01:17:59;16.15;;;7.65;;
23720;SDS011;42950;52.134;5.578;2022-07-30T01:20:30;13.43;;;7.93;;
23720;SDS011;42950;52.134;5.578;2022-07-30T01:23:05;17.30;;;7.60;;
23720;SDS011;42950;52.134;5.578;2022-07-30T01:28:13;13.35;;;7.78;;
23720;SDS011;42950;52.134;5.578;2022-07-30T01:30:42;14.23;;;7.63;;
23720;SDS011;42950;52.134;5.578;2022-07-30T01:33:09;12.48;;;7.60;;
23720;SDS011;42950;52.134;5.578;2022-07-30T01:35:38;10.88;;;6.82;;
23720;SDS011;42950;52.134;5.578;2022-07-30T01:38:05;11.50;;;6.75;;
23720;SDS011;42950;52.134;5.578;2022-07-30T01:40:33;13.00;;;7.30;;
23720;SDS011;42950;52.134;5.578;2022-07-30T01:43:01;13.27;;;7.30;;
23720;SDS011;42950;52.134;5.578;2022-07-30T01:45:29;12.38;;;7.45;;
23720;SDS011;42950;52.134;5.578;2022-07-30T01:47:57;12.52;;;7.60;;
23720;SDS011;42950;52.134;5.578;2022-07-30T01:50:25;15.90;;;7.80;;
23720;SDS011;42950;52.134;5.578;2022-07-30T01:52:53;16.80;;;7.95;;
23720;SDS011;42950;52.134;5.578;2022-07-30T01:55:31;14.45;;;7.60;;
23720;SDS011;42950;52.134;5.578;2022-07-30T01:57:59;12.00;;;6.43;;
23720;SDS011;42950;52.134;5.578;2022-07-30T02:00:27;14.13;;;7.18;;
23720;SDS011;42950;52.134;5.578;2022-07-30T02:02:55;11.55;;;6.63;;
23720;SDS011;42950;52.134;5.578;2022-07-30T02:05:23;10.40;;;6.72;;
23720;SDS011;42950;52.134;5.578;2022-07-30T02:10:30;12.40;;;7.07;;
23720;SDS011;42950;52.134;5.578;2022-07-30T02:12:59;11.75;;;7.15;;
23720;SDS011;42950;52.134;5.578;2022-07-30T02:15:44;11.50;;;7.72;;
23720;SDS011;42950;52.134;5.578;2022-07-30T02:18:28;13.77;;;8.00;;
23720;SDS011;42950;52.134;5.578;2022-07-30T02:21:02;14.45;;;7.05;;
23720;SDS011;42950;52.134;5.578;2022-07-30T02:23:30;14.25;;;7.57;;
23720;SDS011;42950;52.134;5.578;2022-07-30T02:26:00;11.25;;;7.68;;
23720;SDS011;42950;52.134;5.578;2022-07-30T02:28:27;14.52;;;7.97;;
23720;SDS011;42950;52.134;5.578;2022-07-30T02:30:58;13.15;;;7.72;;
23720;SDS011;42950;52.134;5.578;2022-07-30T02:33:26;13.80;;;7.72;;
23720;SDS011;42950;52.134;5.578;2022-07-30T02:35:59;13.30;;;7.30;;
23720;SDS011;42950;52.134;5.578;2022-07-30T02:38:26;11.70;;;7.15;;
23720;SDS011;42950;52.134;5.578;2022-07-30T02:40:54;11.10;;;7.32;;
23720;SDS011;42950;52.134;5.578;2022-07-30T02:43:23;11.02;;;7.28;;
23720;SDS011;42950;52.134;5.578;2022-07-30T02:45:50;11.48;;;7.68;;
23720;SDS011;42950;52.134;5.578;2022-07-30T02:48:17;13.27;;;7.60;;
23720;SDS011;42950;52.134;5.578;2022-07-30T02:50:45;11.20;;;7.63;;
23720;SDS011;42950;52.134;5.578;2022-07-30T02:53:13;12.43;;;7.57;;
23720;SDS011;42950;52.134;5.578;2022-07-30T02:55:40;16.05;;;8.18;;
23720;SDS011;42950;52.134;5.578;2022-07-30T02:58:07;15.90;;;7.90;;
23720;SDS011;42950;52.134;5.578;2022-07-30T03:00:34;10.93;;;6.80;;
23720;SDS011;42950;52.134;5.578;2022-07-30T03:03:04;13.82;;;7.20;;
23720;SDS011;42950;52.134;5.578;2022-07-30T03:05:31;10.75;;;7.60;;
23720;SDS011;42950;52.134;5.578;2022-07-30T03:07:58;14.25;;;8.07;;
23720;SDS011;42950;52.134;5.578;2022-07-30T03:10:25;9.05;;;7.38;;
23720;SDS011;42950;52.134;5.578;2022-07-30T03:12:52;12.05;;;7.68;;
23720;SDS011;42950;52.134;5.578;2022-07-30T03:15:18;17.50;;;7.85;;
23720;SDS011;42950;52.134;5.578;2022-07-30T03:17:45;13.00;;;7.40;;
23720;SDS011;42950;52.134;5.578;2022-07-30T03:20:16;10.05;;;7.00;;
23720;SDS011;42950;52.134;5.578;2022-07-30T03:22:46;12.13;;;7.85;;
23720;SDS011;42950;52.134;5.578;2022-07-30T03:25:15;12.25;;;7.93;;
23720;SDS011;42950;52.134;5.578;2022-07-30T03:27:46;11.63;;;7.60;;
23720;SDS011;42950;52.134;5.578;2022-07-30T03:30:13;8.05;;;7.28;;
23720;SDS011;42950;52.134;5.578;2022-07-30T03:32:40;9.57;;;7.68;;
23720;SDS011;42950;52.134;5.578;2022-07-30T03:35:07;14.60;;;8.05;;
23720;SDS011;42950;52.134;5.578;2022-07-30T03:37:34;13.43;;;7.68;;
23720;SDS011;42950;52.134;5.578;2022-07-30T03:40:02;11.80;;;7.38;;
23720;SDS011;42950;52.134;5.578;2022-07-30T03:42:29;11.18;;;7.88;;
23720;SDS011;42950;52.134;5.578;2022-07-30T03:44:56;13.88;;;7.72;;
23720;SDS011;42950;52.134;5.578;2022-07-30T03:47:22;9.63;;;7.50;;
23720;SDS011;42950;52.134;5.578;2022-07-30T03:49:48;11.55;;;8.20;;
23720;SDS011;42950;52.134;5.578;2022-07-30T03:52:15;9.50;;;7.35;;
23720;SDS011;42950;52.134;5.578;2022-07-30T03:54:41;9.43;;;7.25;;
23720;SDS011;42950;52.134;5.578;2022-07-30T03:57:08;9.25;;;6.93;;
23720;SDS011;42950;52.134;5.578;2022-07-30T03:59:34;10.93;;;7.40;;
23720;SDS011;42950;52.134;5.578;2022-07-30T04:02:00;11.80;;;7.15;;
23720;SDS011;42950;52.134;5.578;2022-07-30T04:04:27;12.15;;;8.27;;
23720;SDS011;42950;52.134;5.578;2022-07-30T04:06:56;14.20;;;8.13;;
23720;SDS011;42950;52.134;5.578;2022-07-30T04:09:22;11.20;;;7.20;;
23720;SDS011;42950;52.134;5.578;2022-07-30T04:11:48;9.00;;;8.10;;
23720;SDS011;42950;52.134;5.578;2022-07-30T04:14:14;10.77;;;6.63;;
23720;SDS011;42950;52.134;5.578;2022-07-30T04:16:50;11.65;;;6.95;;
23720;SDS011;42950;52.134;5.578;2022-07-30T04:19:34;8.60;;;6.80;;
23720;SDS011;42950;52.134;5.578;2022-07-30T04:22:03;13.48;;;7.05;;
23720;SDS011;42950;52.134;5.578;2022-07-30T04:24:30;13.73;;;7.35;;
23720;SDS011;42950;52.134;5.578;2022-07-30T04:26:57;15.60;;;8.25;;
23720;SDS011;42950;52.134;5.578;2022-07-30T04:29:24;13.15;;;8.20;;
23720;SDS011;42950;52.134;5.578;2022-07-30T04:31:50;14.40;;;8.63;;
23720;SDS011;42950;52.134;5.578;2022-07-30T04:34:17;12.95;;;8.57;;
23720;SDS011;42950;52.134;5.578;2022-07-30T04:36:43;11.85;;;7.70;;
23720;SDS011;42950;52.134;5.578;2022-07-30T04:39:09;14.05;;;8.15;;
23720;SDS011;42950;52.134;5.578;2022-07-30T04:41:35;11.60;;;8.70;;
23720;SDS011;42950;52.134;5.578;2022-07-30T04:44:03;14.88;;;8.02;;
23720;SDS011;42950;52.134;5.578;2022-07-30T04:46:29;14.02;;;8.20;;
23720;SDS011;42950;52.134;5.578;2022-07-30T04:48:55;11.18;;;7.32;;
23720;SDS011;42950;52.134;5.578;2022-07-30T04:51:33;13.68;;;8.05;;
23720;SDS011;42950;52.134;5.578;2022-07-30T04:54:02;15.27;;;8.57;;
23720;SDS011;42950;52.134;5.578;2022-07-30T04:56:31;13.30;;;9.02;;
23720;SDS011;42950;52.134;5.578;2022-07-30T04:58:59;14.10;;;9.07;;
23720;SDS011;42950;52.134;5.578;2022-07-30T05:01:26;11.15;;;8.07;;
23720;SDS011;42950;52.134;5.578;2022-07-30T05:03:59;13.15;;;9.05;;
23720;SDS011;42950;52.134;5.578;2022-07-30T05:06:26;12.35;;;8.50;;
23720;SDS011;42950;52.134;5.578;2022-07-30T05:08:52;15.43;;;8.90;;
23720;SDS011;42950;52.134;5.578;2022-07-30T05:11:18;11.73;;;8.60;;
23720;SDS011;42950;52.134;5.578;2022-07-30T05:13:44;14.40;;;8.70;;
23720;SDS011;42950;52.134;5.578;2022-07-30T05:16:12;11.35;;;9.40;;
23720;SDS011;42950;52.134;5.578;2022-07-30T05:18:38;15.38;;;8.70;;
23720;SDS011;42950;52.134;5.578;2022-07-30T05:21:04;9.95;;;8.90;;
23720;SDS011;42950;52.134;5.578;2022-07-30T05:23:34;15.13;;;9.65;;
23720;SDS011;42950;52.134;5.578;2022-07-30T05:28:29;16.85;;;9.55;;
23720;SDS011;42950;52.134;5.578;2022-07-30T05:30:55;13.43;;;9.07;;
23720;SDS011;42950;52.134;5.578;2022-07-30T05:33:21;12.70;;;9.05;;
23720;SDS011;42950;52.134;5.578;2022-07-30T05:35:47;13.70;;;9.10;;
23720;SDS011;42950;52.134;5.578;2022-07-30T05:38:14;13.35;;;9.07;;
23720;SDS011;42950;52.134;5.578;2022-07-30T05:40:41;14.75;;;10.27;;
23720;SDS011;42950;52.134;5.578;2022-07-30T05:43:07;13.32;;;9.93;;
23720;SDS011;42950;52.134;5.578;2022-07-30T05:45:32;19.83;;;10.63;;
23720;SDS011;42950;52.134;5.578;2022-07-30T05:47:58;16.65;;;10.13;;
23720;SDS011;42950;52.134;5.578;2022-07-30T05:50:24;13.88;;;10.35;;
23720;SDS011;42950;52.134;5.578;2022-07-30T05:52:49;12.43;;;9.82;;
23720;SDS011;42950;52.134;5.578;2022-07-30T05:55:15;19.10;;;11.45;;
23720;SDS011;42950;52.134;5.578;2022-07-30T05:57:42;13.90;;;10.70;;
23720;SDS011;42950;52.134;5.578;2022-07-30T06:00:08;12.85;;;10.85;;
23720;SDS011;42950;52.134;5.578;2022-07-30T06:02:35;19.23;;;11.68;;
23720;SDS011;42950;52.134;5.578;2022-07-30T06:05:02;14.48;;;10.68;;
23720;SDS011;42950;52.134;5.578;2022-07-30T06:07:28;14.23;;;10.45;;
23720;SDS011;42950;52.134;5.578;2022-07-30T06:09:55;19.67;;;11.55;;
23720;SDS011;42950;52.134;5.578;2022-07-30T06:12:25;17.33;;;11.75;;
23720;SDS011;42950;52.134;5.578;2022-07-30T06:14:52;19.38;;;11.07;;
23720;SDS011;42950;52.134;5.578;2022-07-30T06:17:18;15.65;;;10.95;;
23720;SDS011;42950;52.134;5.578;2022-07-30T06:19:45;14.90;;;10.95;;
23720;SDS011;42950;52.134;5.578;2022-07-30T06:22:10;11.60;;;9.95;;
23720;SDS011;42950;52.134;5.578;2022-07-30T06:24:37;15.63;;;10.30;;
23720;SDS011;42950;52.134;5.578;2022-07-30T06:27:03;15.27;;;10.02;;
23720;SDS011;42950;52.134;5.578;2022-07-30T06:29:28;20.02;;;11.02;;
23720;SDS011;42950;52.134;5.578;2022-07-30T06:31:54;16.02;;;9.75;;
23720;SDS011;42950;52.134;5.578;2022-07-30T06:34:20;15.57;;;9.18;;
23720;SDS011;42950;52.134;5.578;2022-07-30T06:36:47;11.75;;;9.15;;
23720;SDS011;42950;52.134;5.578;2022-07-30T06:39:13;17.42;;;8.05;;
23720;SDS011;42950;52.134;5.578;2022-07-30T06:41:38;10.60;;;8.55;;
23720;SDS011;42950;52.134;5.578;2022-07-30T06:44:05;14.20;;;8.00;;
23720;SDS011;42950;52.134;5.578;2022-07-30T06:46:30;12.63;;;7.75;;
23720;SDS011;42950;52.134;5.578;2022-07-30T06:48:56;9.98;;;8.13;;
23720;SDS011;42950;52.134;5.578;2022-07-30T06:51:23;14.30;;;7.93;;
23720;SDS011;42950;52.134;5.578;2022-07-30T06:53:49;14.88;;;7.40;;
23720;SDS011;42950;52.134;5.578;2022-07-30T06:56:14;15.75;;;7.40;;
23720;SDS011;42950;52.134;5.578;2022-07-30T06:58:41;10.63;;;6.60;;
23720;SDS011;42950;52.134;5.578;2022-07-30T07:01:06;12.55;;;6.90;;
23720;SDS011;42950;52.134;5.578;2022-07-30T07:03:32;8.88;;;5.88;;
23720;SDS011;42950;52.134;5.578;2022-07-30T07:05:58;12.43;;;5.40;;
23720;SDS011;42950;52.134;5.578;2022-07-30T07:08:23;11.23;;;4.95;;
23720;SDS011;42950;52.134;5.578;2022-07-30T07:10:50;7.85;;;4.70;;
23720;SDS011;42950;52.134;5.578;2022-07-30T07:13:16;9.15;;;4.40;;
23720;SDS011;42950;52.134;5.578;2022-07-30T07:15:41;11.55;;;4.78;;
23720;SDS011;42950;52.134;5.578;2022-07-30T07:18:08;7.63;;;3.80;;
23720;SDS011;42950;52.134;5.578;2022-07-30T07:20:34;9.07;;;3.88;;
23720;SDS011;42950;52.134;5.578;2022-07-30T07:22:59;10.73;;;3.40;;
23720;SDS011;42950;52.134;5.578;2022-07-30T07:25:25;11.10;;;3.10;;
23720;SDS011;42950;52.134;5.578;2022-07-30T07:27:51;12.35;;;3.45;;
23720;SDS011;42950;52.134;5.578;2022-07-30T07:30:17;8.93;;;3.53;;
23720;SDS011;42950;52.134;5.578;2022-07-30T07:32:43;5.18;;;3.10;;
23720;SDS011;42950;52.134;5.578;2022-07-30T07:35:09;10.68;;;3.60;;
23720;SDS011;42950;52.134;5.578;2022-07-30T07:37:34;10.68;;;3.55;;
23720;SDS011;42950;52.134;5.578;2022-07-30T07:40:01;8.73;;;3.33;;
23720;SDS011;42950;52.134;5.578;2022-07-30T07:42:27;9.90;;;3.78;;
23720;SDS011;42950;52.134;5.578;2022-07-30T07:44:53;8.10;;;3.40;;
23720;SDS011;42950;52.134;5.578;2022-07-30T07:47:18;5.43;;;3.38;;
23720;SDS011;42950;52.134;5.578;2022-07-30T07:49:44;5.13;;;3.08;;
23720;SDS011;42950;52.134;5.578;2022-07-30T07:52:09;6.13;;;2.90;;
23720;SDS011;42950;52.134;5.578;2022-07-30T07:54:35;5.20;;;2.72;;
23720;SDS011;42950;52.134;5.578;2022-07-30T07:57:01;6.80;;;2.80;;
23720;SDS011;42950;52.134;5.578;2022-07-30T07:59:27;5.28;;;2.97;;
23720;SDS011;42950;52.134;5.578;2022-07-30T08:01:59;7.15;;;2.42;;
23720;SDS011;42950;52.134;5.578;2022-07-30T08:04:25;5.15;;;2.40;;
23720;SDS011;42950;52.134;5.578;2022-07-30T08:06:51;7.85;;;2.40;;
23720;SDS011;42950;52.134;5.578;2022-07-30T08:09:16;8.48;;;2.40;;
23720;SDS011;42950;52.134;5.578;2022-07-30T08:11:42;6.63;;;2.53;;
23720;SDS011;42950;52.134;5.578;2022-07-30T08:14:07;9.68;;;2.72;;
23720;SDS011;42950;52.134;5.578;2022-07-30T08:16:33;5.65;;;2.22;;
23720;SDS011;42950;52.134;5.578;2022-07-30T08:18:59;6.10;;;1.95;;
23720;SDS011;42950;52.134;5.578;2022-07-30T08:21:24;4.38;;;2.00;;
23720;SDS011;42950;52.134;5.578;2022-07-30T08:23:51;6.07;;;2.28;;
23720;SDS011;42950;52.134;5.578;2022-07-30T08:26:16;9.15;;;2.08;;
23720;SDS011;42950;52.134;5.578;2022-07-30T08:28:42;8.52;;;2.40;;
23720;SDS011;42950;52.134;5.578;2022-07-30T08:31:10;6.80;;;2.28;;
23720;SDS011;42950;52.134;5.578;2022-07-30T08:33:37;4.35;;;2.10;;
23720;SDS011;42950;52.134;5.578;2022-07-30T08:36:03;4.30;;;1.80;;
23720;SDS011;42950;52.134;5.578;2022-07-30T08:38:28;7.85;;;2.50;;
23720;SDS011;42950;52.134;5.578;2022-07-30T08:40:54;6.18;;;2.08;;
23720;SDS011;42950;52.134;5.578;2022-07-30T08:43:20;5.47;;;2.00;;
23720;SDS011;42950;52.134;5.578;2022-07-30T08:45:50;7.97;;;2.00;;
23720;SDS011;42950;52.134;5.578;2022-07-30T08:48:17;4.57;;;1.58;;
23720;SDS011;42950;52.134;5.578;2022-07-30T08:50:46;6.03;;;1.55;;
23720;SDS011;42950;52.134;5.578;2022-07-30T08:53:12;5.72;;;1.83;;
23720;SDS011;42950;52.134;5.578;2022-07-30T08:55:40;4.18;;;1.90;;
23720;SDS011;42950;52.134;5.578;2022-07-30T08:58:05;2.80;;;1.48;;
23720;SDS011;42950;52.134;5.578;2022-07-30T09:00:48;4.07;;;1.60;;
23720;SDS011;42950;52.134;5.578;2022-07-30T09:03:13;6.18;;;1.95;;
23720;SDS011;42950;52.134;5.578;2022-07-30T09:05:39;5.35;;;1.98;;
23720;SDS011;42950;52.134;5.578;2022-07-30T09:08:05;7.68;;;1.92;;
23720;SDS011;42950;52.134;5.578;2022-07-30T09:10:31;5.55;;;1.90;;
23720;SDS011;42950;52.134;5.578;2022-07-30T09:12:56;4.55;;;1.70;;
23720;SDS011;42950;52.134;5.578;2022-07-30T09:15:22;5.45;;;2.15;;
23720;SDS011;42950;52.134;5.578;2022-07-30T09:20:20;5.75;;;1.40;;
23720;SDS011;42950;52.134;5.578;2022-07-30T09:22:51;3.97;;;1.45;;
23720;SDS011;42950;52.134;5.578;2022-07-30T09:25:40;5.00;;;1.70;;
23720;SDS011;42950;52.134;5.578;2022-07-30T09:28:08;4.38;;;1.50;;
23720;SDS011;42950;52.134;5.578;2022-07-30T09:30:46;4.70;;;1.50;;
23720;SDS011;42950;52.134;5.578;2022-07-30T09:33:31;3.63;;;1.27;;
23720;SDS011;42950;52.134;5.578;2022-07-30T09:36:02;2.35;;;1.17;;
23720;SDS011;42950;52.134;5.578;2022-07-30T09:38:40;7.85;;;1.95;;
23720;SDS011;42950;52.134;5.578;2022-07-30T09:41:07;5.50;;;1.65;;
23720;SDS011;42950;52.134;5.578;2022-07-30T09:43:41;3.75;;;1.45;;
23720;SDS011;42950;52.134;5.578;2022-07-30T09:48:38;4.35;;;1.40;;
23720;SDS011;42950;52.134;5.578;2022-07-30T09:51:04;2.63;;;1.05;;
23720;SDS011;42950;52.134;5.578;2022-07-30T09:53:30;4.38;;;1.48;;
23720;SDS011;42950;52.134;5.578;2022-07-30T09:56:00;3.08;;;1.30;;
23720;SDS011;42950;52.134;5.578;2022-07-30T09:58:45;2.05;;;1.10;;
23720;SDS011;42950;52.134;5.578;2022-07-30T10:01:13;2.60;;;1.15;;
23720;SDS011;42950;52.134;5.578;2022-07-30T10:03:42;2.65;;;1.20;;
23720;SDS011;42950;52.134;5.578;2022-07-30T10:06:09;2.28;;;1.10;;
23720;SDS011;42950;52.134;5.578;2022-07-30T10:08:49;2.47;;;1.15;;
23720;SDS011;42950;52.134;5.578;2022-07-30T10:11:16;3.15;;;1.30;;
23720;SDS011;42950;52.134;5.578;2022-07-30T10:13:45;3.55;;;1.23;;
23720;SDS011;42950;52.134;5.578;2022-07-30T10:16:12;3.58;;;1.25;;
23720;SDS011;42950;52.134;5.578;2022-07-30T10:18:42;4.50;;;1.15;;
23720;SDS011;42950;52.134;5.578;2022-07-30T10:21:08;5.35;;;1.30;;
23720;SDS011;42950;52.134;5.578;2022-07-30T10:23:34;4.68;;;1.30;;
23720;SDS011;42950;52.134;5.578;2022-07-30T10:26:01;5.72;;;1.63;;
23720;SDS011;42950;52.134;5.578;2022-07-30T10:28:28;4.18;;;1.50;;
23720;SDS011;42950;52.134;5.578;2022-07-30T10:30:55;3.65;;;1.13;;
23720;SDS011;42950;52.134;5.578;2022-07-30T10:33:23;3.83;;;1.48;;
23720;SDS011;42950;52.134;5.578;2022-07-30T10:35:51;4.57;;;1.40;;
23720;SDS011;42950;52.134;5.578;2022-07-30T10:38:17;3.45;;;1.33;;
23720;SDS011;42950;52.134;5.578;2022-07-30T10:40:52;2.90;;;1.60;;
23720;SDS011;42950;52.134;5.578;2022-07-30T10:43:44;2.88;;;1.40;;
23720;SDS011;42950;52.134;5.578;2022-07-30T10:49:10;4.63;;;1.50;;
23720;SDS011;42950;52.134;5.578;2022-07-30T10:51:47;3.17;;;1.58;;
23720;SDS011;42950;52.134;5.578;2022-07-30T10:59:46;4.82;;;1.60;;
23720;SDS011;42950;52.134;5.578;2022-07-30T11:02:24;4.53;;;1.90;;
23720;SDS011;42950;52.134;5.578;2022-07-30T11:07:41;5.00;;;1.60;;
23720;SDS011;42950;52.134;5.578;2022-07-30T11:10:07;5.55;;;1.80;;
23720;SDS011;42950;52.134;5.578;2022-07-30T11:13:00;3.60;;;1.77;;
23720;SDS011;42950;52.134;5.578;2022-07-30T11:15:50;2.33;;;1.38;;
23720;SDS011;42950;52.134;5.578;2022-07-30T11:18:19;2.97;;;1.33;;
23720;SDS011;42950;52.134;5.578;2022-07-30T11:23:44;4.50;;;1.58;;
23720;SDS011;42950;52.134;5.578;2022-07-30T11:26:56;7.90;;;1.60;;
23720;SDS011;42950;52.134;5.578;2022-07-30T11:29:04;4.50;;;2.20;;
23720;SDS011;42950;52.134;5.578;2022-07-30T11:31:31;5.68;;;1.58;;
23720;SDS011;42950;52.134;5.578;2022-07-30T11:40:16;7.70;;;1.70;;
23720;SDS011;42950;52.134;5.578;2022-07-30T11:42:29;3.60;;;1.60;;
23720;SDS011;42950;52.134;5.578;2022-07-30T11:47:47;2.35;;;1.65;;
23720;SDS011;42950;52.134;5.578;2022-07-30T11:52:53;5.25;;;1.83;;
23720;SDS011;42950;52.134;5.578;2022-07-30T11:55:22;4.00;;;1.40;;
23720;SDS011;42950;52.134;5.578;2022-07-30T11:58:03;2.60;;;1.42;;
23720;SDS011;42950;52.134;5.578;2022-07-30T12:00:38;3.83;;;1.58;;
23720;SDS011;42950;52.134;5.578;2022-07-30T12:03:13;5.03;;;1.77;;
23720;SDS011;42950;52.134;5.578;2022-07-30T12:05:40;3.85;;;1.70;;
23720;SDS011;42950;52.134;5.578;2022-07-30T12:08:06;3.28;;;1.20;;
23720;SDS011;42950;52.134;5.578;2022-07-30T12:10:33;3.00;;;1.50;;
23720;SDS011;42950;52.134;5.578;2022-07-30T12:13:10;3.13;;;1.52;;
23720;SDS011;42950;52.134;5.578;2022-07-30T12:15:39;2.78;;;1.38;;
23720;SDS011;42950;52.134;5.578;2022-07-30T12:18:07;4.15;;;1.50;;
23720;SDS011;42950;52.134;5.578;2022-07-30T12:20:36;3.97;;;1.60;;
23720;SDS011;42950;52.134;5.578;2022-07-30T12:23:12;3.42;;;1.70;;
23720;SDS011;42950;52.134;5.578;2022-07-30T12:25:42;3.97;;;1.73;;
23720;SDS011;42950;52.134;5.578;2022-07-30T12:28:09;3.28;;;1.40;;
23720;SDS011;42950;52.134;5.578;2022-07-30T12:30:38;4.20;;;1.58;;
23720;SDS011;42950;52.134;5.578;2022-07-30T12:33:06;6.68;;;1.80;;
23720;SDS011;42950;52.134;5.578;2022-07-30T12:35:42;2.05;;;1.50;;
23720;SDS011;42950;52.134;5.578;2022-07-30T12:38:16;3.85;;;1.52;;
23720;SDS011;42950;52.134;5.578;2022-07-30T12:41:02;2.15;;;1.23;;
23720;SDS011;42950;52.134;5.578;2022-07-30T12:46:29;4.10;;;1.30;;
23720;SDS011;42950;52.134;5.578;2022-07-30T12:49:05;3.17;;;1.35;;
23720;SDS011;42950;52.134;5.578;2022-07-30T12:51:33;7.97;;;1.67;;
23720;SDS011;42950;52.134;5.578;2022-07-30T12:54:13;5.28;;;1.45;;
23720;SDS011;42950;52.134;5.578;2022-07-30T12:56:41;4.07;;;1.30;;
23720;SDS011;42950;52.134;5.578;2022-07-30T12:59:27;5.55;;;1.20;;
23720;SDS011;42950;52.134;5.578;2022-07-30T13:01:54;3.15;;;1.23;;
23720;SDS011;42950;52.134;5.578;2022-07-30T13:04:21;3.30;;;1.20;;
23720;SDS011;42950;52.134;5.578;2022-07-30T13:09:35;2.40;;;1.10;;
23720;SDS011;42950;52.134;5.578;2022-07-30T13:12:02;6.35;;;1.17;;
23720;SDS011;42950;52.134;5.578;2022-07-30T13:14:28;4.65;;;1.35;;
23720;SDS011;42950;52.134;5.578;2022-07-30T13:16:54;1.65;;;1.00;;
23720;SDS011;42950;52.134;5.578;2022-07-30T13:19:22;4.15;;;1.17;;
23720;SDS011;42950;52.134;5.578;2022-07-30T13:21:49;5.55;;;1.20;;
23720;SDS011;42950;52.134;5.578;2022-07-30T13:24:15;3.15;;;1.00;;
23720;SDS011;42950;52.134;5.578;2022-07-30T13:26:42;4.47;;;1.05;;
23720;SDS011;42950;52.134;5.578;2022-07-30T13:29:08;3.63;;;1.17;;
23720;SDS011;42950;52.134;5.578;2022-07-30T13:31:34;2.60;;;0.95;;
23720;SDS011;42950;52.134;5.578;2022-07-30T13:34:00;7.15;;;1.13;;
23720;SDS011;42950;52.134;5.578;2022-07-30T13:36:26;1.67;;;1.20;;
23720;SDS011;42950;52.134;5.578;2022-07-30T13:38:52;4.43;;;1.30;;
23720;SDS011;42950;52.134;5.578;2022-07-30T13:41:19;4.10;;;1.10;;
23720;SDS011;42950;52.134;5.578;2022-07-30T13:43:45;3.88;;;1.17;;
23720;SDS011;42950;52.134;5.578;2022-07-30T13:46:10;2.63;;;0.90;;
23720;SDS011;42950;52.134;5.578;2022-07-30T13:48:36;3.00;;;1.08;;
23720;SDS011;42950;52.134;5.578;2022-07-30T13:51:03;3.28;;;0.98;;
23720;SDS011;42950;52.134;5.578;2022-07-30T13:53:29;2.65;;;0.98;;
23720;SDS011;42950;52.134;5.578;2022-07-30T13:55:55;4.35;;;0.93;;
23720;SDS011;42950;52.134;5.578;2022-07-30T13:58:24;4.30;;;1.00;;
23720;SDS011;42950;52.134;5.578;2022-07-30T14:00:50;3.03;;;0.82;;
23720;SDS011;42950;52.134;5.578;2022-07-30T14:03:16;7.95;;;1.20;;
23720;SDS011;42950;52.134;5.578;2022-07-30T14:05:42;5.97;;;0.95;;
23720;SDS011;42950;52.134;5.578;2022-07-30T14:08:08;7.20;;;1.58;;
23720;SDS011;42950;52.134;5.578;2022-07-30T14:10:35;1.58;;;0.90;;
23720;SDS011;42950;52.134;5.578;2022-07-30T14:13:01;2.45;;;0.95;;
23720;SDS011;42950;52.134;5.578;2022-07-30T14:15:29;3.85;;;1.17;;
23720;SDS011;42950;52.134;5.578;2022-07-30T14:17:55;3.95;;;1.00;;
23720;SDS011;42950;52.134;5.578;2022-07-30T14:20:21;6.22;;;1.33;;
23720;SDS011;42950;52.134;5.578;2022-07-30T14:22:47;3.65;;;1.10;;
23720;SDS011;42950;52.134;5.578;2022-07-30T14:25:13;3.33;;;1.00;;
23720;SDS011;42950;52.134;5.578;2022-07-30T14:27:39;3.33;;;1.10;;
23720;SDS011;42950;52.134;5.578;2022-07-30T14:30:05;6.82;;;1.20;;
23720;SDS011;42950;52.134;5.578;2022-07-30T14:32:33;4.05;;;1.20;;
23720;SDS011;42950;52.134;5.578;2022-07-30T14:35:00;2.88;;;1.10;;
23720;SDS011;42950;52.134;5.578;2022-07-30T14:37:26;4.75;;;1.23;;
23720;SDS011;42950;52.134;5.578;2022-07-30T14:39:53;6.32;;;1.17;;
23720;SDS011;42950;52.134;5.578;2022-07-30T14:42:19;3.55;;;1.40;;
23720;SDS011;42950;52.134;5.578;2022-07-30T14:44:45;2.10;;;1.08;;
23720;SDS011;42950;52.134;5.578;2022-07-30T14:47:12;3.17;;;0.98;;
23720;SDS011;42950;52.134;5.578;2022-07-30T14:49:38;2.63;;;1.23;;
23720;SDS011;42950;52.134;5.578;2022-07-30T14:52:04;6.28;;;1.40;;
23720;SDS011;42950;52.134;5.578;2022-07-30T14:54:29;2.83;;;1.27;;
23720;SDS011;42950;52.134;5.578;2022-07-30T14:56:55;5.30;;;1.05;;
23720;SDS011;42950;52.134;5.578;2022-07-30T14:59:23;5.57;;;1.35;;
23720;SDS011;42950;52.134;5.578;2022-07-30T15:01:51;3.53;;;1.25;;
23720;SDS011;42950;52.134;5.578;2022-07-30T15:04:18;4.22;;;1.60;;
23720;SDS011;42950;52.134;5.578;2022-07-30T15:06:44;5.55;;;1.23;;
23720;SDS011;42950;52.134;5.578;2022-07-30T15:09:12;4.53;;;0.95;;
23720;SDS011;42950;52.134;5.578;2022-07-30T15:11:37;3.78;;;1.20;;
23720;SDS011;42950;52.134;5.578;2022-07-30T15:14:04;4.00;;;1.30;;
23720;SDS011;42950;52.134;5.578;2022-07-30T15:16:29;3.97;;;1.10;;
23720;SDS011;42950;52.134;5.578;2022-07-30T15:18:56;2.40;;;1.27;;
23720;SDS011;42950;52.134;5.578;2022-07-30T15:21:22;3.88;;;1.50;;
23720;SDS011;42950;52.134;5.578;2022-07-30T15:23:49;4.20;;;1.13;;
23720;SDS011;42950;52.134;5.578;2022-07-30T15:26:15;1.50;;;1.05;;
23720;SDS011;42950;52.134;5.578;2022-07-30T15:28:40;2.80;;;1.48;;